Time;durP1;ratioP1;P1;durP2;ratioP2;P2;SDS_P1;SDS_P2;PMS_P1;PMS_P2;Temp;Humidity;BMP_temperature;BMP_pressure;BME280_temperature;BME280_humidity;BME280_pressure;Samples;Min_cycle;Max_cycle;Signal;HPM_P1;HPM_P2
2023/06/25 00:00:55;;;;;;;5.22;3.13;;;;;;;21.39;62.44;102119.13;4997631;28;97374;-27
2023/06/25 00:03:20;;;;;;;5.80;3.17;;;;;;;21.34;62.76;102110.38;4997765;28;96520;-27
2023/06/25 00:05:46;;;;;;;5.15;3.00;;;;;;;21.25;63.68;102100.16;4998339;28;96833;-28
2023/06/25 00:08:11;;;;;;;5.97;2.90;;;;;;;21.31;63.50;102110.63;4997314;28;99422;-27
2023/06/25 00:10:37;;;;;;;5.72;3.08;;;;;;;21.22;63.10;102098.56;4997511;28;97778;-28
2023/06/25 00:13:02;;;;;;;7.75;2.95;;;;;;;21.26;63.90;102099.13;4996730;28;96711;-28
2023/06/25 00:15:28;;;;;;;6.50;3.35;;;;;;;21.26;63.69;102104.66;4997392;28;96858;-28
2023/06/25 00:17:54;;;;;;;6.07;3.42;;;;;;;21.21;63.44;102094.03;4997319;28;97428;-27
2023/06/25 00:20:19;;;;;;;7.05;3.17;;;;;;;21.14;64.59;102084.53;4997038;28;98858;-27
2023/06/25 00:22:45;;;;;;;7.70;3.22;;;;;;;21.13;64.49;102080.06;4997756;28;96762;-29
2023/06/25 00:25:14;;;;;;;6.95;3.15;;;;;;;21.12;64.26;102089.34;4996027;28;96924;-29
2023/06/25 00:27:40;;;;;;;6.30;3.20;;;;;;;21.14;64.19;102076.28;4995484;28;100800;-28
2023/06/25 00:30:07;;;;;;;5.57;3.50;;;;;;;21.11;64.82;102082.06;4997298;28;99430;-27
2023/06/25 00:32:33;;;;;;;7.38;3.90;;;;;;;21.06;64.91;102076.09;4995634;28;96787;-27
2023/06/25 00:35:00;;;;;;;6.90;3.67;;;;;;;21.02;65.04;102066.31;4995527;28;96939;-28
2023/06/25 00:37:26;;;;;;;8.38;3.47;;;;;;;21.03;64.91;102074.47;4995179;28;101051;-28
2023/06/25 00:39:51;;;;;;;5.60;3.08;;;;;;;21.00;66.02;102085.75;4996765;28;99298;-27
2023/06/25 00:42:17;;;;;;;8.20;3.22;;;;;;;20.95;65.32;102071.47;4997188;28;96694;-28
2023/06/25 00:44:43;;;;;;;6.05;3.42;;;;;;;20.94;66.02;102078.00;4997412;28;96774;-27
2023/06/25 00:47:12;;;;;;;5.20;2.95;;;;;;;20.92;66.17;102075.38;4995370;28;100742;-27
2023/06/25 00:49:39;;;;;;;5.15;3.20;;;;;;;20.90;65.82;102066.38;4995260;28;99011;-29
2023/06/25 00:52:08;;;;;;;6.20;2.92;;;;;;;20.90;66.47;102063.63;4997239;28;96558;-28
2023/06/25 00:54:37;;;;;;;5.72;3.25;;;;;;;20.90;66.71;102063.63;4996132;28;96835;-27
2023/06/25 00:57:04;;;;;;;8.07;3.13;;;;;;;20.88;66.51;102053.75;4996672;28;97951;-28
2023/06/25 00:59:30;;;;;;;6.10;3.22;;;;;;;20.80;67.47;102037.88;4995294;28;100758;-27
2023/06/25 01:02:05;;;;;;;7.22;3.28;;;;;;;20.78;67.14;102037.13;4994996;28;96633;-27
2023/06/25 01:04:37;;;;;;;7.70;3.53;;;;;;;20.78;67.54;102038.03;4995259;28;96798;-28
2023/06/25 01:07:10;;;;;;;6.15;3.28;;;;;;;20.83;67.85;102037.59;4995174;28;101018;-27
2023/06/25 01:09:37;;;;;;;5.65;3.25;;;;;;;20.82;67.18;102029.50;4994966;28;101267;-27
2023/06/25 01:12:04;;;;;;;6.10;3.42;;;;;;;20.86;67.62;102039.25;4996632;28;96673;-28
2023/06/25 01:14:32;;;;;;;6.68;3.20;;;;;;;20.83;67.61;102034.84;4995345;28;96873;-28
2023/06/25 01:16:58;;;;;;;6.03;3.25;;;;;;;20.85;66.90;102027.34;4996466;28;97533;-28
2023/06/25 01:19:29;;;;;;;7.20;3.40;;;;;;;20.85;67.62;102026.47;4995428;28;101279;-27
2023/06/25 01:22:03;;;;;;;7.17;3.60;;;;;;;20.84;68.52;102021.97;4995334;28;96684;-28
2023/06/25 01:24:30;;;;;;;5.88;3.22;;;;;;;20.78;68.01;102012.34;4996427;28;96859;-27
2023/06/25 01:26:59;;;;;;;5.15;3.28;;;;;;;20.79;67.95;102023.25;4994416;28;100637;-28
2023/06/25 01:29:25;;;;;;;7.20;3.65;;;;;;;20.77;68.94;102017.00;4994795;28;100880;-28
2023/06/25 01:31:51;;;;;;;5.40;3.13;;;;;;;20.77;68.66;102018.88;4996463;28;96606;-28
2023/06/25 01:34:23;;;;;;;7.20;2.85;;;;;;;20.78;69.64;102015.09;4994361;28;96938;-27
2023/06/25 01:36:50;;;;;;;8.93;3.55;;;;;;;20.75;69.27;102010.75;4995894;28;99570;-27
2023/06/25 01:39:17;;;;;;;6.28;3.22;;;;;;;20.76;69.06;102008.84;4994619;28;101419;-27
2023/06/25 01:41:43;;;;;;;5.80;3.67;;;;;;;20.73;68.94;102000.84;4994900;28;96578;-28
2023/06/25 01:44:11;;;;;;;7.60;3.88;;;;;;;20.72;69.53;101990.88;4995131;28;96828;-27
2023/06/25 01:46:37;;;;;;;7.35;3.72;;;;;;;20.71;68.95;101998.25;4995735;28;98210;-27
2023/06/25 01:49:02;;;;;;;7.25;3.63;;;;;;;20.68;69.55;101993.00;4994403;28;100981;-27
2023/06/25 01:51:27;;;;;;;7.30;4.30;;;;;;;20.70;69.63;101987.38;4995794;28;96473;-28
2023/06/25 01:53:53;;;;;;;7.35;4.30;;;;;;;20.69;69.99;101989.25;4996127;28;97712;-28
2023/06/25 01:56:18;;;;;;;6.13;3.47;;;;;;;20.69;69.29;101992.00;4995819;28;97384;-27
2023/06/25 01:58:44;;;;;;;6.75;3.72;;;;;;;20.68;70.13;101983.88;4995776;28;98288;-27
2023/06/25 02:01:09;;;;;;;6.80;3.58;;;;;;;20.64;69.74;101979.63;4995822;28;96702;-27
2023/06/25 02:03:35;;;;;;;7.00;4.00;;;;;;;20.60;69.89;101979.03;4996045;28;96808;-27
2023/06/25 02:06:01;;;;;;;7.22;4.13;;;;;;;20.66;70.16;101980.38;4995779;28;97371;-29
2023/06/25 02:08:26;;;;;;;7.50;3.92;;;;;;;20.62;70.43;101978.88;4996275;28;97235;-28
2023/06/25 02:10:51;;;;;;;8.20;4.15;;;;;;;20.57;70.25;101966.41;4995948;28;96580;-27
2023/06/25 02:13:17;;;;;;;9.43;4.15;;;;;;;20.53;71.33;101959.38;4996038;28;96863;-29
2023/06/25 02:15:42;;;;;;;8.57;4.35;;;;;;;20.58;70.90;101961.75;4994423;28;97935;-33
2023/06/25 02:18:07;;;;;;;7.30;3.95;;;;;;;20.53;71.22;101955.75;4995622;28;97332;-27
2023/06/25 02:20:33;;;;;;;9.55;4.07;;;;;;;20.56;71.01;101955.50;4995955;28;96646;-27
2023/06/25 02:22:58;;;;;;;6.88;3.85;;;;;;;20.50;71.31;101951.38;4994260;28;96712;-27
2023/06/25 02:25:23;;;;;;;6.22;3.33;;;;;;;20.51;71.68;101955.00;4995458;28;98032;-27
2023/06/25 02:27:49;;;;;;;8.05;4.32;;;;;;;20.47;72.04;101954.38;4995255;28;98973;-27
2023/06/25 02:30:14;;;;;;;6.13;3.80;;;;;;;20.51;72.13;101953.13;4995462;28;96646;-28
2023/06/25 02:32:39;;;;;;;7.47;3.65;;;;;;;20.49;72.07;101952.38;4995805;28;96920;-28
2023/06/25 02:35:05;;;;;;;9.48;4.32;;;;;;;20.44;71.52;101953.78;4994719;28;98603;-27
2023/06/25 02:37:30;;;;;;;8.35;4.43;;;;;;;20.44;72.23;101953.78;4995460;28;97923;-27
2023/06/25 02:39:56;;;;;;;8.25;4.80;;;;;;;20.45;71.89;101963.78;4995182;28;96885;-27
2023/06/25 02:42:21;;;;;;;12.02;4.38;;;;;;;20.42;71.88;101950.28;4995618;28;96807;-27
2023/06/25 02:44:46;;;;;;;8.63;4.45;;;;;;;20.40;72.36;101942.16;4995089;28;97381;-27
2023/06/25 02:47:12;;;;;;;7.97;4.47;;;;;;;20.39;72.41;101945.06;4993423;28;101447;-28
2023/06/25 02:49:37;;;;;;;7.78;4.20;;;;;;;20.31;73.08;101924.56;4995206;28;96853;-27
2023/06/25 02:52:03;;;;;;;11.07;4.80;;;;;;;20.32;72.78;101931.81;4995376;28;96735;-27
2023/06/25 02:54:28;;;;;;;8.70;4.45;;;;;;;20.31;73.05;101929.22;4994896;28;98058;-27
2023/06/25 02:56:54;;;;;;;8.70;4.38;;;;;;;20.27;73.05;101927.72;4995473;28;98331;-27
2023/06/25 02:59:19;;;;;;;9.55;4.85;;;;;;;20.31;72.89;101938.34;4995044;28;96551;-27
2023/06/25 03:01:45;;;;;;;7.32;4.32;;;;;;;20.31;72.79;101937.47;4995106;28;96777;-27
2023/06/25 03:04:11;;;;;;;8.77;4.53;;;;;;;20.30;73.88;101935.69;4992717;28;100974;-28
2023/06/25 03:06:36;;;;;;;10.63;5.05;;;;;;;20.29;72.76;101940.34;4993635;28;98189;-27
2023/06/25 03:09:01;;;;;;;10.82;4.55;;;;;;;20.24;72.69;101934.34;4995143;28;96542;-27
2023/06/25 03:11:27;;;;;;;8.18;4.57;;;;;;;20.25;72.52;101936.09;4994749;28;96845;-28
2023/06/25 03:13:52;;;;;;;8.82;4.82;;;;;;;20.26;72.39;101939.72;4994686;28;97469;-27
2023/06/25 03:16:17;;;;;;;8.80;4.65;;;;;;;20.23;73.32;101943.59;4994553;28;97838;-28
2023/06/25 03:18:43;;;;;;;8.48;4.50;;;;;;;20.22;73.95;101939.13;4995062;28;96537;-27
2023/06/25 03:21:08;;;;;;;9.57;4.72;;;;;;;20.14;73.88;101939.78;4995096;28;96841;-28
2023/06/25 03:23:33;;;;;;;10.77;4.88;;;;;;;20.17;73.71;101943.28;4994536;28;97496;-28
2023/06/25 03:25:59;;;;;;;12.27;5.40;;;;;;;20.15;72.94;101935.13;4994618;28;97988;-28
2023/06/25 03:28:24;;;;;;;8.82;4.82;;;;;;;20.13;73.41;101934.38;4994048;28;96589;-27
2023/06/25 03:30:50;;;;;;;8.20;4.70;;;;;;;20.10;73.50;101926.41;4994648;28;96777;-27
2023/06/25 03:33:15;;;;;;;9.15;5.03;;;;;;;20.07;74.74;101929.41;4993189;28;97935;-29
2023/06/25 03:35:40;;;;;;;10.32;4.82;;;;;;;20.08;74.17;101932.03;4993666;28;99542;-27
2023/06/25 03:38:06;;;;;;;10.85;5.30;;;;;;;20.06;73.32;101927.66;4994359;28;96552;-28
2023/06/25 03:40:31;;;;;;;8.77;4.43;;;;;;;20.08;73.90;101934.78;4994502;28;96929;-27
2023/06/25 03:42:56;;;;;;;10.38;5.38;;;;;;;20.06;74.39;101927.66;4993240;28;98016;-27
2023/06/25 03:45:22;;;;;;;12.52;5.70;;;;;;;20.00;74.36;101925.41;4994684;28;97739;-27
2023/06/25 03:47:47;;;;;;;9.75;5.00;;;;;;;20.02;73.94;101931.66;4994268;28;96553;-28
2023/06/25 03:50:12;;;;;;;8.27;4.88;;;;;;;19.98;74.02;101921.94;4993091;28;96905;-28
2023/06/25 03:52:37;;;;;;;11.95;4.72;;;;;;;20.00;74.16;101923.56;4993853;28;98396;-27
2023/06/25 03:55:03;;;;;;;10.05;5.00;;;;;;;19.99;74.65;101920.94;4994161;28;97263;-27
2023/06/25 03:57:29;;;;;;;9.75;4.63;;;;;;;19.92;73.94;101910.44;4994435;28;96467;-28
2023/06/25 03:59:54;;;;;;;11.38;4.97;;;;;;;19.90;75.58;101920.72;4994409;28;96749;-29
2023/06/25 04:02:20;;;;;;;10.57;5.00;;;;;;;19.85;74.99;101909.19;4994170;28;97897;-27
2023/06/25 04:04:45;;;;;;;9.18;5.18;;;;;;;19.88;74.93;101925.47;4993946;28;99677;-27
2023/06/25 04:07:10;;;;;;;12.45;5.70;;;;;;;;;;4994327;28;96542;-28
2023/06/25 04:09:36;;;;;;;8.63;4.47;;;;;;;;;;4994948;28;96566;-28
2023/06/25 04:12:01;;;;;;;9.45;4.93;;;;;;;19.79;75.29;101900.63;4993989;28;98193;-28
2023/06/25 04:14:26;;;;;;;10.25;5.53;;;;;;;19.81;74.72;101907.75;4993901;28;97782;-27
2023/06/25 04:16:52;;;;;;;10.75;5.57;;;;;;;19.83;75.38;101914.00;4993746;28;96676;-27
2023/06/25 04:19:17;;;;;;;8.95;4.80;;;;;;;19.80;76.28;101927.97;4994295;28;96927;-27
2023/06/25 04:21:42;;;;;;;11.43;5.88;;;;;;;19.78;75.52;101910.72;4993730;28;99193;-28
2023/06/25 04:24:08;;;;;;;12.52;5.53;;;;;;;19.84;75.45;101917.59;4993566;28;99093;-27
2023/06/25 04:26:33;;;;;;;9.60;5.03;;;;;;;19.83;75.47;101921.34;4994181;28;96602;-27
2023/06/25 04:28:59;;;;;;;12.35;5.55;;;;;;;19.79;75.52;101903.38;4994107;28;96795;-28
2023/06/25 04:31:24;;;;;;;9.68;5.15;;;;;;;19.83;75.29;101916.75;4993763;28;97868;-28
2023/06/25 04:33:50;;;;;;;10.63;5.57;;;;;;;19.86;75.47;101919.22;4993739;28;98265;-27
2023/06/25 04:36:18;;;;;;;9.63;5.28;;;;;;;19.93;74.78;101916.84;4993402;28;97181;-27
2023/06/25 04:38:43;;;;;;;10.07;4.85;;;;;;;19.92;74.66;101915.94;4994343;28;96916;-27
2023/06/25 04:41:08;;;;;;;9.50;5.03;;;;;;;19.92;74.11;101913.19;4996124;28;99308;-27
2023/06/25 04:43:34;;;;;;;10.10;4.95;;;;;;;19.91;76.22;101916.94;4997380;28;97251;-27
2023/06/25 04:46:00;;;;;;;8.98;4.88;;;;;;;19.92;76.23;101907.69;4996853;28;96713;-28
2023/06/25 04:48:25;;;;;;;8.85;4.53;;;;;;;19.96;74.82;101915.69;4997014;28;96842;-27
2023/06/25 04:50:51;;;;;;;10.15;4.82;;;;;;;19.94;75.01;101916.69;4996904;28;98130;-28
2023/06/25 04:53:16;;;;;;;8.73;4.80;;;;;;;20.00;74.65;101906.16;4995445;28;101084;-27
2023/06/25 04:55:41;;;;;;;8.77;5.18;;;;;;;20.00;75.18;101904.31;4997075;28;96713;-27
2023/06/25 04:58:07;;;;;;;9.35;4.97;;;;;;;20.00;74.77;101900.66;4997417;28;97081;-27
2023/06/25 05:00:32;;;;;;;14.23;5.65;;;;;;;20.00;74.87;101890.56;4994930;28;101530;-27
2023/06/25 05:02:57;;;;;;;9.55;5.30;;;;;;;20.07;74.49;101901.88;4997084;28;97416;-27
2023/06/25 05:05:23;;;;;;;8.95;5.00;;;;;;;20.06;74.70;101895.53;4996487;28;96561;-27
2023/06/25 05:07:48;;;;;;;12.73;6.03;;;;;;;20.13;74.35;101898.63;4997259;28;96890;-27
2023/06/25 05:10:15;;;;;;;9.13;5.32;;;;;;;20.19;74.93;101908.22;4996182;28;99456;-27
2023/06/25 05:12:40;;;;;;;9.60;4.95;;;;;;;20.19;74.02;101905.47;4995116;28;100730;-27
2023/06/25 05:15:06;;;;;;;10.93;5.55;;;;;;;20.28;74.16;101922.06;4996729;28;96780;-27
2023/06/25 05:17:32;;;;;;;13.95;5.40;;;;;;;20.27;73.85;101913.97;4996944;28;96753;-28
2023/06/25 05:19:57;;;;;;;11.00;5.13;;;;;;;20.35;73.54;101905.91;4996552;28;97486;-27
2023/06/25 05:22:22;;;;;;;13.40;5.65;;;;;;;20.41;73.54;101915.53;4996792;28;97749;-27
2023/06/25 05:24:48;;;;;;;9.32;5.10;;;;;;;20.45;73.99;101909.63;4996643;28;96515;-28
2023/06/25 05:27:13;;;;;;;11.50;4.97;;;;;;;20.50;73.13;101912.84;4996765;28;96791;-27
2023/06/25 05:29:39;;;;;;;11.63;5.53;;;;;;;20.57;72.69;101904.97;4995517;28;97945;-27
2023/06/25 05:32:05;;;;;;;9.63;5.20;;;;;;;20.68;73.06;101913.13;4996175;28;97795;-27
2023/06/25 05:34:30;;;;;;;9.02;5.18;;;;;;;20.69;73.19;101903.91;4994539;28;96962;-27
2023/06/25 05:36:55;;;;;;;10.52;5.75;;;;;;;20.77;72.83;101908.72;4996274;28;96746;-27
2023/06/25 05:39:22;;;;;;;9.30;5.13;;;;;;;20.83;72.52;101913.66;4996197;28;97408;-28
2023/06/25 05:41:47;;;;;;;9.95;4.90;;;;;;;20.90;72.04;101911.25;4995868;28;98526;-28
2023/06/25 05:44:13;;;;;;;11.98;6.38;;;;;;;20.98;71.98;101914.22;4996292;28;96661;-27
2023/06/25 05:46:38;;;;;;;10.98;6.15;;;;;;;21.03;71.91;101911.91;4996523;28;96814;-27
2023/06/25 05:49:03;;;;;;;12.05;5.38;;;;;;;21.15;71.45;101915.47;4996124;28;97405;-27
2023/06/25 05:51:29;;;;;;;11.65;5.38;;;;;;;21.23;71.16;101917.53;4994706;28;97359;-28
2023/06/25 05:53:54;;;;;;;9.32;4.63;;;;;;;21.30;70.73;101910.44;4995721;28;96597;-27
2023/06/25 05:56:20;;;;;;;11.40;5.28;;;;;;;21.42;70.63;101912.13;4996047;28;96769;-28
2023/06/25 05:58:45;;;;;;;10.68;5.32;;;;;;;21.51;70.10;101911.28;4995649;28;99129;-27
2023/06/25 06:01:10;;;;;;;10.73;5.38;;;;;;;21.59;70.02;101913.34;4995927;28;97768;-28
2023/06/25 06:03:36;;;;;;;9.02;4.95;;;;;;;21.69;69.92;101908.75;4995915;28;96480;-28
2023/06/25 06:06:01;;;;;;;12.80;5.90;;;;;;;21.80;68.90;101910.50;4996099;28;96757;-27
2023/06/25 06:08:27;;;;;;;12.35;5.47;;;;;;;21.94;69.14;101910.09;4995720;28;97930;-27
2023/06/25 06:10:52;;;;;;;10.30;5.45;;;;;;;22.03;68.99;101911.13;4996050;28;97296;-28
2023/06/25 06:13:18;;;;;;;11.57;5.47;;;;;;;22.17;67.97;101912.59;4996024;28;96512;-28
2023/06/25 06:15:43;;;;;;;8.52;4.78;;;;;;;22.28;68.25;101906.94;4995716;28;96715;-28
2023/06/25 06:18:08;;;;;;;9.13;4.95;;;;;;;22.37;67.51;101906.06;4995079;28;97993;-29
2023/06/25 06:20:34;;;;;;;9.88;4.80;;;;;;;22.45;66.91;101892.44;4995321;28;98760;-27
2023/06/25 06:23:01;;;;;;;14.93;4.55;;;;;;;22.62;66.88;101912.00;4995797;28;96612;-28
2023/06/25 06:25:27;;;;;;;9.57;4.80;;;;;;;22.72;66.24;101900.97;4977959;28;96811;-27
2023/06/25 06:27:54;;;;;;;10.88;4.82;;;;;;;22.79;65.98;101896.59;4995380;28;97448;-27
2023/06/25 06:30:23;;;;;;;11.23;5.28;;;;;;;22.93;65.62;101885.06;4995045;28;99732;-27
2023/06/25 06:32:48;;;;;;;10.05;5.00;;;;;;;23.10;65.92;101891.75;4993903;28;96806;-28
2023/06/25 06:35:14;;;;;;;8.52;4.93;;;;;;;23.16;65.12;101891.13;4995200;28;96839;-28
2023/06/25 06:37:39;;;;;;;12.20;4.82;;;;;;;23.31;64.44;101885.94;4995400;28;97861;-28
2023/06/25 06:40:05;;;;;;;9.30;5.22;;;;;;;23.38;64.54;101886.22;4995248;28;97278;-28
2023/06/25 06:42:31;;;;;;;9.88;4.82;;;;;;;23.54;63.66;101883.66;4993190;28;96625;-27
2023/06/25 06:44:56;;;;;;;9.35;4.68;;;;;;;23.59;63.29;101873.00;4995674;28;96789;-28
2023/06/25 06:47:21;;;;;;;9.27;4.60;;;;;;;23.62;63.33;101878.25;4995258;28;97521;-27
2023/06/25 06:49:47;;;;;;;8.98;4.57;;;;;;;23.80;63.04;101877.44;4995036;28;97804;-28
2023/06/25 06:52:13;;;;;;;8.02;4.35;;;;;;;23.94;62.37;101883.28;4995159;28;96564;-27
2023/06/25 06:54:38;;;;;;;7.70;3.97;;;;;;;23.99;61.59;101879.19;4993676;28;96876;-27
2023/06/25 06:57:05;;;;;;;8.93;4.43;;;;;;;24.14;61.37;101883.13;4994855;28;98169;-28
2023/06/25 06:59:30;;;;;;;10.90;4.82;;;;;;;24.23;61.49;101875.78;4993659;28;101075;-27
2023/06/25 07:01:55;;;;;;;8.45;4.15;;;;;;;24.40;61.30;101887.88;4994768;28;98526;-28
2023/06/25 07:04:20;;;;;;;7.38;4.07;;;;;;;24.47;59.97;101881.56;4995130;28;96868;-27
2023/06/25 07:06:46;;;;;;;11.75;4.80;;;;;;;24.59;59.15;101884.94;4994433;28;97478;-28
2023/06/25 07:09:11;;;;;;;10.10;4.03;;;;;;;24.69;59.49;101874.63;4994399;28;107625;-28
2023/06/25 07:11:36;;;;;;;9.15;4.78;;;;;;;24.88;58.55;101873.53;4994906;28;96472;-28
2023/06/25 07:14:02;;;;;;;8.43;3.70;;;;;;;24.97;58.49;101874.47;4995134;28;96883;-28
2023/06/25 07:16:27;;;;;;;7.47;3.80;;;;;;;25.10;58.06;101871.25;4994729;28;97913;-27
2023/06/25 07:18:53;;;;;;;7.95;3.70;;;;;;;25.23;57.86;101877.25;4994675;28;97735;-27
2023/06/25 07:21:18;;;;;;;8.93;3.88;;;;;;;25.29;57.41;101871.06;4994632;28;96599;-27
2023/06/25 07:23:44;;;;;;;8.10;3.72;;;;;;;25.45;56.94;101863.81;4995380;28;96846;-27
2023/06/25 07:26:09;;;;;;;7.85;3.83;;;;;;;25.63;55.69;101881.25;4994430;28;98090;-28
2023/06/25 07:28:34;;;;;;;7.55;3.15;;;;;;;25.71;55.99;101869.28;4994645;28;97759;-27
2023/06/25 07:31:00;;;;;;;6.85;3.08;;;;;;;25.88;55.51;101871.09;4994195;28;96689;-29
2023/06/25 07:33:25;;;;;;;6.00;2.67;;;;;;;26.03;55.02;101874.97;4994650;28;96766;-30
2023/06/25 07:35:50;;;;;;;6.65;2.90;;;;;;;26.02;54.10;101873.22;4994115;28;97566;-28
2023/06/25 07:38:16;;;;;;;6.13;2.67;;;;;;;26.15;54.37;101869.94;4992927;28;99238;-28
2023/06/25 07:40:41;;;;;;;5.45;2.63;;;;;;;26.24;52.41;101863.38;4994724;28;96598;-28
2023/06/25 07:43:07;;;;;;;5.30;2.35;;;;;;;26.41;53.17;101875.34;4994399;28;96859;-28
2023/06/25 07:45:32;;;;;;;6.00;2.53;;;;;;;26.44;52.36;101866.66;4994129;28;99512;-29
2023/06/25 07:47:57;;;;;;;4.43;2.67;;;;;;;26.60;52.28;101868.59;4994351;28;99357;-28
2023/06/25 07:50:22;;;;;;;4.43;2.55;;;;;;;26.63;51.74;101862.69;4992658;28;96750;-27
2023/06/25 07:52:48;;;;;;;6.30;2.63;;;;;;;26.71;51.13;101861.78;4995740;28;96842;-27
2023/06/25 07:55:14;;;;;;;4.18;2.30;;;;;;;26.68;51.34;101851.03;5012160;28;101403;-28
2023/06/25 07:57:39;;;;;;;6.03;2.35;;;;;;;26.87;50.90;101858.97;5008982;28;99010;-28
2023/06/25 08:00:06;;;;;;;4.20;2.42;;;;;;;26.98;50.99;101854.97;4994633;28;96678;-27
2023/06/25 08:02:31;;;;;;;5.07;2.88;;;;;;;27.16;50.21;101851.09;4993214;28;96821;-27
2023/06/25 08:04:57;;;;;;;7.10;2.58;;;;;;;27.19;49.33;101865.53;4993089;28;101260;-27
2023/06/25 08:07:22;;;;;;;6.63;2.53;;;;;;;27.28;49.00;101849.69;4993989;28;97808;-27
2023/06/25 08:09:48;;;;;;;4.78;2.17;;;;;;;27.40;49.04;101851.00;4994469;28;96541;-28
2023/06/25 08:12:16;;;;;;;6.82;2.75;;;;;;;27.42;49.31;101843.34;4994540;28;96864;-27
2023/06/25 08:14:42;;;;;;;4.55;2.47;;;;;;;27.44;48.22;101846.81;4993708;28;101128;-27
2023/06/25 08:17:08;;;;;;;4.10;2.25;;;;;;;27.55;47.63;101842.75;4995922;28;101063;-27
2023/06/25 08:19:33;;;;;;;3.35;2.10;;;;;;;27.57;47.84;101840.66;4997398;28;96866;-27
2023/06/25 08:21:58;;;;;;;3.80;2.30;;;;;;;27.67;46.67;101844.09;4997642;28;96763;-28
2023/06/25 08:24:24;;;;;;;4.03;1.95;;;;;;;27.69;45.90;101836.41;4997373;28;97966;-27
2023/06/25 08:26:49;;;;;;;3.85;1.92;;;;;;;27.78;45.46;101828.88;4995465;28;109965;-28
2023/06/25 08:29:15;;;;;;;3.08;1.90;;;;;;;27.82;44.62;101838.59;4996446;28;96788;-27
2023/06/25 08:31:40;;;;;;;3.00;1.60;;;;;;;27.86;40.18;101826.06;4997456;28;96781;-27
2023/06/25 08:34:07;;;;;;;3.38;2.05;;;;;;;27.84;45.24;101833.75;4996709;28;97927;-27
2023/06/25 08:36:32;;;;;;;2.45;1.38;;;;;;;27.95;44.57;101824.94;4996956;28;97496;-28
2023/06/25 08:38:58;;;;;;;3.70;1.58;;;;;;;28.09;43.48;101828.84;4997568;28;96866;-27
2023/06/25 08:41:23;;;;;;;3.53;1.77;;;;;;;28.27;43.74;101836.03;4997315;28;96871;-27
2023/06/25 08:43:50;;;;;;;2.95;1.35;;;;;;;28.30;41.96;101818.94;4995179;28;98910;-27
2023/06/25 08:46:16;;;;;;;2.75;1.52;;;;;;;28.47;42.38;101814.13;4996761;28;99058;-27
2023/06/25 08:48:43;;;;;;;2.63;1.42;;;;;;;28.45;40.90;101827.34;4996116;28;96710;-27
2023/06/25 08:51:16;;;;;;;2.60;1.35;;;;;;;28.58;41.00;101820.09;4997197;28;96794;-27
2023/06/25 08:53:42;;;;;;;3.05;1.60;;;;;;;28.51;39.61;101801.53;4995216;28;101100;-27
2023/06/25 08:56:09;;;;;;;2.58;1.42;;;;;;;28.68;40.05;101807.81;4996597;28;99521;-27
2023/06/25 08:58:36;;;;;;;3.47;1.67;;;;;;;28.71;39.23;101811.06;4996868;28;96580;-26
2023/06/25 09:01:01;;;;;;;3.60;1.70;;;;;;;28.74;40.46;101809.81;4997270;28;96854;-27
2023/06/25 09:03:27;;;;;;;2.40;1.35;;;;;;;28.71;37.18;101796.25;4996807;28;97978;-28
2023/06/25 09:05:54;;;;;;;3.40;1.70;;;;;;;28.66;37.86;101795.97;4997854;28;101248;-26
2023/06/25 09:08:24;;;;;;;2.88;1.50;;;;;;;28.80;38.25;101815.50;5003347;28;96878;-27
2023/06/25 09:10:54;;;;;;;3.88;1.80;;;;;;;28.82;37.03;101808.84;4995301;28;96896;-27
2023/06/25 09:13:23;;;;;;;5.65;1.80;;;;;;;28.98;38.28;101812.34;4994927;28;101076;-27
2023/06/25 09:15:49;;;;;;;4.55;1.85;;;;;;;29.15;38.81;101815.84;4994942;28;101035;-27
2023/06/25 09:18:19;;;;;;;3.42;1.90;;;;;;;29.28;38.76;101809.56;4995314;28;96677;-27
2023/06/25 09:20:48;;;;;;;3.17;1.52;;;;;;;29.32;37.57;101804.44;4995388;28;96827;-27
2023/06/25 09:23:21;;;;;;;5.70;2.25;;;;;;;29.28;37.08;101803.09;5003447;28;99500;-27
2023/06/25 09:25:47;;;;;;;3.33;1.70;;;;;;;29.29;37.18;101807.63;4994724;28;101267;-29
2023/06/25 09:28:13;;;;;;;3.72;1.77;;;;;;;29.37;38.08;101805.59;5013920;28;96778;-27
2023/06/25 09:30:39;;;;;;;3.38;2.08;;;;;;;29.44;38.54;101800.09;5011397;28;96866;-32
2023/06/25 09:33:05;;;;;;;4.45;2.20;;;;;;;29.59;38.61;101800.91;4994111;28;101044;-27
2023/06/25 09:35:32;;;;;;;4.78;2.03;;;;;;;29.78;38.02;101798.56;4994049;28;98835;-27
2023/06/25 09:37:58;;;;;;;4.65;2.10;;;;;;;29.90;37.94;101799.78;5001990;28;96824;-27
2023/06/25 09:40:23;;;;;;;5.22;2.10;;;;;;;29.80;37.28;101797.31;5015455;28;96766;-31
2023/06/25 09:42:52;;;;;;;5.22;2.92;;;;;;;29.84;36.63;101795.84;5011685;28;99557;-28
2023/06/25 09:45:20;;;;;;;3.72;2.08;;;;;;;30.08;37.58;101784.47;5011966;28;101356;-30
2023/06/25 09:47:47;;;;;;;5.07;2.20;;;;;;;30.35;38.01;101792.06;5006189;28;96781;-31
2023/06/25 09:50:17;;;;;;;6.40;2.17;;;;;;;30.27;36.89;101795.88;4992769;28;96851;-28
2023/06/25 09:53:02;;;;;;;4.93;2.10;;;;;;;30.36;37.29;101785.38;4994703;28;100781;-27
2023/06/25 09:55:29;;;;;;;5.28;2.15;;;;;;;30.56;37.57;101787.47;5012533;28;100830;-27
2023/06/25 09:57:56;;;;;;;4.05;2.05;;;;;;;30.55;36.59;101778.22;5014269;28;96531;-27
2023/06/25 10:00:24;;;;;;;4.45;2.28;;;;;;;30.60;37.24;101769.22;5014429;28;96878;-27
2023/06/25 10:02:52;;;;;;;3.55;1.73;;;;;;;30.69;37.67;101766.03;5015775;28;98063;-27
2023/06/25 10:05:17;;;;;;;3.45;1.80;;;;;;;30.79;37.54;101762.88;4997810;28;100714;-27
2023/06/25 10:07:44;;;;;;;4.53;2.10;;;;;;;30.87;37.01;101761.91;5002692;28;96586;-27
2023/06/25 10:10:23;;;;;;;5.63;1.98;;;;;;;31.04;36.95;101765.22;4994241;28;96642;-27
2023/06/25 10:12:49;;;;;;;5.15;2.65;;;;;;;31.15;36.02;101761.78;4993729;28;101546;-27
2023/06/25 10:15:26;;;;;;;4.40;1.95;;;;;;;31.25;36.77;101758.59;4993347;28;101195;-28
2023/06/25 10:17:52;;;;;;;3.55;2.00;;;;;;;31.30;36.69;101765.31;4993952;28;96904;-27
2023/06/25 10:20:43;;;;;;;3.45;2.20;;;;;;;31.36;36.32;101759.94;5014946;28;97050;-28
2023/06/25 10:23:13;;;;;;;5.35;1.92;;;;;;;31.41;35.81;101755.47;5013485;28;100849;-27
2023/06/25 10:25:55;;;;;;;4.05;2.30;;;;;;;31.54;35.72;101749.06;5008936;28;101015;-27
2023/06/25 10:28:36;;;;;;;3.80;2.10;;;;;;;31.51;35.43;101752.25;4996085;28;97655;-27
2023/06/25 10:31:15;;;;;;;3.63;1.90;;;;;;;31.51;35.07;101741.94;4993053;28;96816;-31
2023/06/25 10:33:42;;;;;;;2.92;1.70;;;;;;;31.60;36.38;101741.72;4992415;28;98140;-27
2023/06/25 10:36:10;;;;;;;3.17;1.90;;;;;;;31.64;35.94;101735.50;4990491;28;101030;-29
2023/06/25 10:38:37;;;;;;;5.32;1.85;;;;;;;31.78;36.45;101735.53;4999484;28;97178;-28
2023/06/25 10:41:02;;;;;;;4.50;1.88;;;;;;;31.76;36.65;101718.91;4993517;28;96838;-27
2023/06/25 10:43:28;;;;;;;3.47;2.35;;;;;;;31.79;35.68;101718.47;4992514;28;99435;-32
2023/06/25 10:45:57;;;;;;;3.05;1.98;;;;;;;31.90;35.16;101719.78;4993329;28;97986;-27
2023/06/25 10:48:24;;;;;;;4.65;2.17;;;;;;;31.89;35.89;101718.94;4993278;28;96655;-27
2023/06/25 10:50:51;;;;;;;3.92;2.05;;;;;;;31.85;35.72;101717.63;4993688;28;96901;-27
2023/06/25 10:53:19;;;;;;;4.25;1.85;;;;;;;31.94;36.07;101721.97;5007556;28;97941;-28
2023/06/25 10:55:53;;;;;;;5.68;1.92;;;;;;;31.74;34.99;101710.72;4996409;28;99112;-27
2023/06/25 10:58:23;;;;;;;4.30;1.98;;;;;;;31.88;35.29;101716.34;5011030;28;97851;-27
2023/06/25 11:00:56;;;;;;;4.30;2.77;;;;;;;31.88;34.65;101705.13;5011636;28;96836;-27
2023/06/25 11:03:25;;;;;;;4.18;1.95;;;;;;;32.04;34.85;101706.69;5010921;28;99095;-28
2023/06/25 11:05:51;;;;;;;4.28;1.92;;;;;;;32.01;35.42;101705.16;5013947;28;99612;-28
2023/06/25 11:08:16;;;;;;;3.95;1.88;;;;;;;32.05;34.88;101705.59;5012495;28;96763;-28
2023/06/25 11:10:44;;;;;;;5.25;2.50;;;;;;;32.05;34.88;101700.84;5014371;28;96588;-28
2023/06/25 11:13:10;;;;;;;2.97;2.08;;;;;;;32.03;34.18;101702.13;5009330;28;100833;-28
2023/06/25 11:15:36;;;;;;;4.93;2.13;;;;;;;32.03;35.49;101707.75;5009788;28;101797;-28
2023/06/25 11:18:03;;;;;;;3.95;2.13;;;;;;;32.05;35.18;101695.22;5011943;28;97047;-28
2023/06/25 11:20:29;;;;;;;6.22;2.10;;;;;;;32.17;33.81;101699.09;5011512;28;96980;-27